WET,Max TemperatureF,Mean TemperatureF,Min TemperatureF,Max Dew PointF,MeanDew PointF,Min DewpointF,Max Humidity, Mean Humidity, Min Humidity, Max Sea Level PressureIn, Mean Sea Level PressureIn, Min Sea Level PressureIn, Max VisibilityMiles, Mean VisibilityMiles, Min VisibilityMiles, Max Wind SpeedMPH, Mean Wind SpeedMPH, Max Gust SpeedMPH,PrecipitationIn, CloudCover, Events, WindDirDegrees
2011-11-1,86,72,57,59,51,41,88,56,22,30.09,30.04,29.98,6,6,6,8,4,,0.00,,,237
2011-11-2,77,67,57,57,53,50,88,65,39,30.04,29.99,29.95,6,6,5,10,5,,0.00,5,,250
2011-11-3,80,68,57,64,58,52,100,81,42,29.95,29.89,29.83,6,6,3,14,5,,0.00,4,Rain,255
2011-11-4,68,60,53,61,55,50,100,85,52,30.04,29.89,29.80,6,6,4,32,14,43,0.00,6,Rain,260
2011-11-5,66,60,53,54,51,48,94,80,56,30.21,30.13,30.04,6,6,3,14,8,,0.00,5,Rain,247
2011-11-6,68,58,48,54,48,45,100,70,43,30.21,30.15,30.12,6,5,4,12,6,,0.00,3,,59
2011-11-7,69,58,48,50,46,41,100,68,35,30.15,30.08,30.01,6,5,4,9,6,16,0.00,2,,68
2011-11-8,71,58,46,50,47,43,93,67,35,30.12,30.09,30.06,6,5,3,6,3,,0.00,4,,77
2011-11-9,80,65,50,52,48,45,94,57,30,30.12,30.08,30.06,6,5,3,7,4,,0.00,2,,60
2011-11-10,84,68,51,52,48,43,88,54,23,30.09,30.05,30.01,6,5,3,8,3,,0.00,6,,84
2011-11-11,82,66,51,52,47,43,82,52,25,30.06,30.01,29.98,6,5,3,9,4,,0.00,6,,83
2011-11-12,86,73,60,48,42,34,63,37,15,30.01,30.00,29.95,6,5,3,8,4,,0.00,6,,106
2011-11-13,86,73,55,50,39,30,63,35,13,30.04,29.98,29.92,6,4,3,12,5,,0.00,5,,117
2011-11-14,75,64,53,57,53,46,88,71,50,30.12,30.04,29.95,6,5,3,14,6,,0.00,4,,256
2011-11-15,71,63,55,55,50,45,88,66,41,30.12,30.08,30.04,6,6,4,8,5,,0.00,4,,41
2011-11-16,75,62,50,52,47,43,94,64,34,30.09,30.05,30.01,6,5,4,10,6,16,0.00,5,,81
2011-11-17,71,64,57,55,49,45,77,59,38,30.09,30.05,30.01,6,4,3,12,4,,0.00,5,Rain,81
2011-11-18,80,68,57,57,50,43,88,60,28,30.09,30.02,29.95,6,5,4,18,9,,0.00,4,Rain,219
2011-11-19,68,60,51,55,53,48,100,81,56,29.98,29.91,29.83,6,6,4,14,5,,0.00,4,Rain,257
2011-11-20,60,56,51,55,52,50,100,91,77,30.01,29.88,29.80,6,5,3,23,11,,0.00,2,Rain-Thunderstorm,238
2011-11-21,64,58,51,57,53,50,94,89,64,30.21,30.09,30.01,6,6,3,12,7,,0.00,5,Rain,237
2011-11-22,59,54,48,55,53,48,100,95,77,30.21,30.18,30.15,6,4,1,10,4,,0.00,4,Rain,242
2011-11-23,64,54,44,54,48,43,100,79,48,30.15,30.05,29.98,6,6,0,13,4,,0.00,3,Fog-Rain,219
2011-11-24,68,60,51,54,49,45,100,81,43,30.15,30.07,30.01,6,6,5,20,7,,0.00,2,Rain,81
2011-11-25,69,58,46,54,48,43,93,71,49,30.21,30.17,30.12,6,6,4,13,4,,0.00,2,Thunderstorm,328
2011-11-26,68,56,44,50,47,43,93,71,43,30.24,30.20,30.18,6,5,3,6,4,,0.00,1,,74
2011-11-27,69,56,44,52,48,43,100,73,46,30.18,30.16,30.12,6,6,3,9,3,,0.00,2,,71
2011-11-28,69,56,44,52,47,43,100,74,40,30.21,30.17,30.15,6,5,4,7,4,,0.00,,,85
2011-11-29,73,58,44,48,45,41,100,68,31,30.27,30.22,30.18,6,5,3,5,2,,0.00,,,96
2011-11-30,77,60,42,46,44,39,93,64,27,30.30,30.25,30.21,6,4,3,6,3,,0.00,,,91